Time;durP1;ratioP1;P1;durP2;ratioP2;P2;SDS_P1;SDS_P2;PMS_P1;PMS_P2;Temp;Humidity;BMP_temperature;BMP_pressure;BME280_temperature;BME280_humidity;BME280_pressure;Samples;Min_cycle;Max_cycle;Signal;HPM_P1;HPM_P2
2022/07/08 00:00:34;;;;;;;8.40;2.15;;;15.00;99.90;;;;;;5031557;28;20053;-69
2022/07/08 00:03:00;;;;;;;7.40;2.08;;;14.80;99.90;;;;;;5031809;28;20399;-69
2022/07/08 00:05:26;;;;;;;7.25;1.73;;;14.90;99.90;;;;;;5031542;28;20052;-69
2022/07/08 00:07:51;;;;;;;11.18;1.60;;;14.90;99.90;;;;;;5030553;28;20128;-69
2022/07/08 00:10:17;;;;;;;7.82;1.52;;;14.90;99.90;;;;;;5031479;28;20045;-69
2022/07/08 00:12:43;;;;;;;8.10;1.85;;;14.90;99.90;;;;;;5031739;28;20116;-69
2022/07/08 00:15:09;;;;;;;8.93;1.92;;;14.80;99.90;;;;;;5030250;28;20041;-69
2022/07/08 00:17:35;;;;;;;5.55;1.58;;;14.80;99.90;;;;;;5029955;28;20088;-69
2022/07/08 00:20:01;;;;;;;4.65;1.48;;;14.90;99.90;;;;;;5031165;28;20438;-69
2022/07/08 00:22:27;;;;;;;11.63;1.48;;;14.80;99.90;;;;;;5030211;28;20048;-69
2022/07/08 00:24:53;;;;;;;9.77;1.70;;;14.80;99.90;;;;;;5031634;28;20037;-69
2022/07/08 00:27:18;;;;;;;11.02;1.70;;;14.80;99.90;;;;;;5030492;28;20519;-69
2022/07/08 00:29:44;;;;;;;9.23;2.20;;;14.80;99.90;;;;;;5031197;28;20049;-69
2022/07/08 00:32:10;;;;;;;5.93;1.20;;;14.80;99.90;;;;;;5031381;28;20053;-69
2022/07/08 00:34:35;;;;;;;8.10;2.08;;;14.80;99.90;;;;;;5031227;28;20037;-69
2022/07/08 00:37:02;;;;;;;5.72;1.77;;;14.70;99.90;;;;;;5031499;28;20041;-69
2022/07/08 00:39:28;;;;;;;7.18;1.67;;;14.80;99.90;;;;;;5029846;28;20030;-69
2022/07/08 00:41:53;;;;;;;7.45;1.55;;;14.80;99.90;;;;;;5031413;28;20164;-69
2022/07/08 00:44:19;;;;;;;7.10;2.03;;;14.80;99.90;;;;;;5034222;28;20041;-69
2022/07/08 00:46:45;;;;;;;7.07;1.50;;;14.80;99.90;;;;;;5034949;28;20052;-69
2022/07/08 00:49:10;;;;;;;6.90;1.92;;;14.80;99.90;;;;;;5034624;28;20069;-69
2022/07/08 00:51:36;;;;;;;7.15;1.85;;;14.80;99.90;;;;;;5034863;28;20422;-69
2022/07/08 00:54:03;;;;;;;13.57;1.85;;;14.70;99.90;;;;;;5034980;28;20495;-69
2022/07/08 00:56:29;;;;;;;8.18;1.38;;;14.70;99.90;;;;;;5034837;28;20042;-69
2022/07/08 00:58:55;;;;;;;8.95;2.10;;;14.70;99.90;;;;;;5034727;28;20037;-69
2022/07/08 01:01:21;;;;;;;10.23;1.77;;;14.70;99.90;;;;;;5034535;28;20064;-69
2022/07/08 01:03:47;;;;;;;9.57;2.05;;;14.60;99.90;;;;;;5034522;28;20060;-69
2022/07/08 01:06:13;;;;;;;9.55;1.80;;;14.60;99.90;;;;;;5033340;28;20041;-69
2022/07/08 01:08:40;;;;;;;6.90;1.85;;;14.50;99.90;;;;;;5034622;28;20035;-69
2022/07/08 01:11:08;;;;;;;11.00;2.30;;;14.50;99.90;;;;;;5034371;28;20111;-69
2022/07/08 01:13:34;;;;;;;8.93;3.08;;;14.60;99.90;;;;;;5033215;28;20051;-69
2022/07/08 01:15:59;;;;;;;10.07;1.83;;;14.60;99.90;;;;;;5034360;28;20483;-69
2022/07/08 01:18:27;;;;;;;9.23;1.95;;;14.50;99.90;;;;;;5034155;28;20125;-69
2022/07/08 01:20:53;;;;;;;6.88;1.70;;;14.50;99.90;;;;;;5032774;28;20045;-69
2022/07/08 01:23:18;;;;;;;9.60;2.05;;;14.60;99.90;;;;;;5034277;28;20030;-69
2022/07/08 01:25:46;;;;;;;12.05;2.47;;;14.50;99.90;;;;;;5034243;28;20084;-69
2022/07/08 01:28:12;;;;;;;7.85;1.52;;;14.50;99.90;;;;;;5034154;28;20056;-69
2022/07/08 01:30:37;;;;;;;10.93;1.58;;;14.50;99.90;;;;;;5033902;28;20037;-69
2022/07/08 01:33:03;;;;;;;9.13;1.83;;;14.50;99.90;;;;;;5034140;28;20045;-69
2022/07/08 01:35:29;;;;;;;10.27;2.22;;;14.50;99.90;;;;;;5034259;28;20156;-69
2022/07/08 01:37:54;;;;;;;6.43;2.08;;;14.40;99.90;;;;;;5033915;28;20116;-69
2022/07/08 01:40:20;;;;;;;8.55;2.78;;;14.30;99.90;;;;;;5033856;28;20447;-69
2022/07/08 01:42:45;;;;;;;8.20;1.77;;;14.30;99.90;;;;;;5032748;28;20601;-69
2022/07/08 01:45:11;;;;;;;9.10;1.80;;;14.20;99.90;;;;;;5033864;28;20454;-69
2022/07/08 01:47:37;;;;;;;11.90;1.95;;;14.20;99.90;;;;;;5033702;28;20037;-69
2022/07/08 01:50:03;;;;;;;7.78;1.92;;;14.20;99.90;;;;;;5033638;28;20411;-69
2022/07/08 01:52:28;;;;;;;8.05;1.75;;;14.10;99.90;;;;;;5032701;28;20045;-69
2022/07/08 01:54:54;;;;;;;12.65;1.92;;;14.20;99.90;;;;;;5033138;28;20116;-69
2022/07/08 01:57:21;;;;;;;10.88;2.40;;;14.10;99.90;;;;;;5033582;28;20042;-69
2022/07/08 01:59:48;;;;;;;8.82;1.55;;;14.00;99.90;;;;;;5033295;28;20077;-69
2022/07/08 02:02:15;;;;;;;10.07;1.42;;;14.00;99.90;;;;;;5032312;28;20406;-69
2022/07/08 02:04:41;;;;;;;7.03;1.58;;;14.00;99.90;;;;;;5033371;28;20077;-69
2022/07/08 02:07:07;;;;;;;6.25;1.38;;;13.90;99.90;;;;;;5033418;28;20410;-69
2022/07/08 02:09:34;;;;;;;9.27;1.88;;;13.90;99.90;;;;;;5031781;28;20088;-69
2022/07/08 02:12:18;;;;;;;8.60;2.00;;;14.00;99.90;;;;;;5033389;28;20069;-69
2022/07/08 02:14:54;;;;;;;7.50;2.22;;;13.90;99.90;;;;;;5033303;28;20128;-69
2022/07/08 02:17:23;;;;;;;7.50;1.70;;;13.80;99.90;;;;;;5031899;28;20037;-69
2022/07/08 02:19:50;;;;;;;6.68;1.75;;;13.80;99.90;;;;;;5031705;28;20029;-69
2022/07/08 02:22:16;;;;;;;9.18;1.60;;;13.70;99.90;;;;;;5033274;28;20384;-69
2022/07/08 02:24:42;;;;;;;5.88;1.60;;;13.80;99.90;;;;;;5033151;28;20034;-69
2022/07/08 02:27:08;;;;;;;7.72;2.33;;;13.70;99.90;;;;;;5032009;28;20045;-69
2022/07/08 02:29:34;;;;;;;7.75;1.88;;;13.80;99.90;;;;;;5032829;28;20084;-69
2022/07/08 02:32:00;;;;;;;9.85;1.98;;;13.70;99.90;;;;;;5033019;28;20041;-69
2022/07/08 02:34:26;;;;;;;7.80;1.90;;;13.70;99.90;;;;;;5015487;28;20048;-69
2022/07/08 02:36:52;;;;;;;8.45;2.45;;;13.70;99.90;;;;;;5032854;28;20037;-69
2022/07/08 02:39:18;;;;;;;8.65;1.95;;;13.60;99.90;;;;;;5032460;28;20499;-69
2022/07/08 02:41:44;;;;;;;7.43;1.73;;;13.60;99.90;;;;;;5032706;28;20046;-69
2022/07/08 02:44:10;;;;;;;10.05;2.17;;;13.50;99.90;;;;;;5031800;28;20033;-70
2022/07/08 02:46:36;;;;;;;8.43;2.30;;;13.60;99.90;;;;;;5031651;28;20131;-69
2022/07/08 02:49:02;;;;;;;7.57;2.10;;;13.50;99.90;;;;;;5032680;28;20049;-69
2022/07/08 02:51:28;;;;;;;9.43;2.10;;;13.50;99.90;;;;;;5032500;28;20038;-69
2022/07/08 02:53:54;;;;;;;7.32;2.05;;;13.50;99.90;;;;;;5032632;28;20040;-69
2022/07/08 02:56:19;;;;;;;4.38;1.50;;;13.50;99.90;;;;;;5032462;28;20037;-69
2022/07/08 02:58:45;;;;;;;9.18;1.88;;;13.50;99.90;;;;;;5032698;28;20503;-69
2022/07/08 03:01:10;;;;;;;8.32;2.33;;;13.50;99.90;;;;;;5032288;28;20411;-69
2022/07/08 03:03:36;;;;;;;10.98;2.72;;;13.40;99.90;;;;;;5032630;28;20553;-69
2022/07/08 03:06:02;;;;;;;12.40;2.15;;;13.40;99.90;;;;;;5031798;28;20033;-69
2022/07/08 03:08:28;;;;;;;10.45;3.03;;;13.40;99.90;;;;;;5030874;28;20037;-69
2022/07/08 03:10:53;;;;;;;11.10;2.00;;;13.30;99.90;;;;;;5031924;28;20507;-69
2022/07/08 03:13:19;;;;;;;11.10;3.22;;;13.40;99.90;;;;;;5032289;28;20407;-69
2022/07/08 03:15:44;;;;;;;8.07;2.13;;;13.30;99.90;;;;;;5032299;28;20033;-69
2022/07/08 03:18:10;;;;;;;10.95;2.03;;;13.30;99.90;;;;;;5032003;28;20598;-69
2022/07/08 03:20:35;;;;;;;13.82;2.45;;;13.40;99.90;;;;;;5031978;28;20052;-69
2022/07/08 03:23:01;;;;;;;7.45;1.90;;;13.30;99.90;;;;;;5032115;28;20033;-69
2022/07/08 03:25:27;;;;;;;6.63;2.00;;;13.20;99.90;;;;;;5030604;28;20041;-69
2022/07/08 03:27:53;;;;;;;7.47;1.95;;;13.20;99.90;;;;;;5032057;28;20052;-69
2022/07/08 03:30:18;;;;;;;5.88;1.83;;;13.20;99.90;;;;;;5031964;28;20065;-69
2022/07/08 03:32:44;;;;;;;9.68;2.22;;;13.20;99.90;;;;;;5032722;28;20450;-69
2022/07/08 03:35:09;;;;;;;8.98;2.17;;;13.10;99.90;;;;;;5032168;28;20041;-70
2022/07/08 03:37:39;;;;;;;8.00;2.47;;;13.20;99.90;;;;;;5032302;28;20038;-69
2022/07/08 03:42:50;;;;;;;9.65;2.83;;;13.10;99.90;;;;;;5031947;28;20045;-69
2022/07/08 03:45:15;;;;;;;11.75;2.53;;;13.20;99.90;;;;;;5031923;28;20037;-69
2022/07/08 03:47:41;;;;;;;6.57;2.38;;;13.20;99.90;;;;;;5031883;28;20048;-69
2022/07/08 03:50:08;;;;;;;8.90;2.47;;;13.10;99.90;;;;;;5032735;28;20585;-69
2022/07/08 03:52:33;;;;;;;7.32;2.35;;;13.10;99.90;;;;;;5033897;28;20586;-69
2022/07/08 03:54:59;;;;;;;8.77;2.38;;;13.10;99.90;;;;;;5031987;28;20046;-69
2022/07/08 03:57:24;;;;;;;12.35;2.60;;;13.10;99.90;;;;;;5031861;28;20095;-69
2022/07/08 03:59:50;;;;;;;8.82;2.13;;;13.20;99.90;;;;;;5031447;28;20086;-69
2022/07/08 04:02:16;;;;;;;7.43;2.35;;;13.20;99.90;;;;;;5031598;28;20045;-69
2022/07/08 04:04:41;;;;;;;5.93;2.75;;;13.20;99.90;;;;;;5031757;28;20038;-69
2022/07/08 04:07:07;;;;;;;10.68;2.22;;;13.20;99.90;;;;;;5031770;28;20517;-69
2022/07/08 04:09:32;;;;;;;5.85;2.00;;;13.30;99.90;;;;;;5031379;28;20042;-69
2022/07/08 04:11:58;;;;;;;7.22;2.42;;;13.30;99.90;;;;;;5031759;28;20112;-69
2022/07/08 04:14:23;;;;;;;9.50;2.47;;;13.20;99.90;;;;;;5031584;28;20045;-69
2022/07/08 04:16:49;;;;;;;10.77;2.53;;;13.30;99.90;;;;;;5030892;28;20124;-69
2022/07/08 04:19:14;;;;;;;11.13;2.30;;;13.20;99.90;;;;;;5025874;28;20033;-69
2022/07/08 04:21:40;;;;;;;10.15;2.53;;;13.30;99.90;;;;;;5035401;28;20048;-69
2022/07/08 04:24:06;;;;;;;8.85;2.15;;;13.30;99.90;;;;;;5035660;28;20087;-69
2022/07/08 04:26:32;;;;;;;7.60;2.55;;;13.30;99.90;;;;;;5034111;28;20096;-69
2022/07/08 04:29:01;;;;;;;7.90;2.92;;;13.40;99.90;;;;;;5035194;28;20395;-69
2022/07/08 04:31:27;;;;;;;9.60;2.70;;;13.40;99.90;;;;;;5034916;28;20410;-69
2022/07/08 04:33:53;;;;;;;13.00;2.38;;;13.40;99.90;;;;;;5035214;28;20495;-69
2022/07/08 04:36:23;;;;;;;12.13;2.75;;;13.50;99.90;;;;;;5034991;28;20065;-69
2022/07/08 04:38:49;;;;;;;8.20;2.95;;;13.50;99.90;;;;;;5034661;28;20042;-69
2022/07/08 04:41:14;;;;;;;17.33;3.45;;;13.60;99.90;;;;;;5025569;28;20102;-69
2022/07/08 04:43:41;;;;;;;9.40;2.67;;;13.60;99.90;;;;;;5035070;28;20033;-69
2022/07/08 04:46:06;;;;;;;11.57;2.17;;;13.70;99.90;;;;;;5035029;28;20052;-69
2022/07/08 04:48:32;;;;;;;6.00;1.90;;;13.70;99.90;;;;;;5033691;28;20045;-69
2022/07/08 04:50:58;;;;;;;8.85;2.00;;;13.70;99.90;;;;;;5034527;28;20403;-69
2022/07/08 04:53:23;;;;;;;13.05;2.67;;;14.00;99.90;;;;;;5035006;28;20088;-69
2022/07/08 04:55:49;;;;;;;10.73;2.38;;;14.20;99.90;;;;;;5016946;28;20045;-69
2022/07/08 04:58:15;;;;;;;9.98;2.90;;;14.10;99.90;;;;;;5034595;28;20044;-69
2022/07/08 05:00:40;;;;;;;11.23;3.53;;;14.20;99.90;;;;;;5034440;28;20641;-69
2022/07/08 05:03:06;;;;;;;9.57;2.30;;;14.30;99.90;;;;;;5034719;28;20398;-69
2022/07/08 05:05:33;;;;;;;4.57;1.58;;;14.30;99.90;;;;;;5033309;28;20087;-69
2022/07/08 05:07:59;;;;;;;10.25;2.72;;;14.40;99.90;;;;;;5034451;28;20645;-69
2022/07/08 05:10:26;;;;;;;9.15;2.30;;;14.40;99.90;;;;;;5034423;28;20038;-69
2022/07/08 05:12:52;;;;;;;8.30;2.20;;;14.50;99.90;;;;;;5033102;28;20041;-70
2022/07/08 05:15:18;;;;;;;9.98;2.38;;;14.80;99.90;;;;;;5034338;28;20045;-69
2022/07/08 05:17:44;;;;;;;7.72;2.17;;;15.10;99.90;;;;;;5056719;22;20045;-82
2022/07/08 05:20:10;;;;;;;6.38;1.92;;;15.00;99.90;;;;;;5022210;28;20053;-81
2022/07/08 05:22:37;;;;;;;10.57;2.65;;;15.40;99.90;;;;;;5025732;28;20038;-82
2022/07/08 05:25:04;;;;;;;9.13;2.30;;;15.50;99.90;;;;;;5025057;28;20517;-82
2022/07/08 05:27:30;;;;;;;11.88;2.30;;;15.80;99.90;;;;;;5024010;28;20060;-81
2022/07/08 05:29:55;;;;;;;9.43;2.05;;;16.10;99.90;;;;;;5024089;28;20037;-82
2022/07/08 05:32:21;;;;;;;11.43;2.58;;;16.30;99.90;;;;;;5024504;28;20406;-82
2022/07/08 05:34:47;;;;;;;11.32;2.10;;;16.50;99.90;;;;;;5010250;28;20072;-81
2022/07/08 05:37:13;;;;;;;11.93;2.88;;;16.40;99.90;;;;;;5026010;28;20041;-81
2022/07/08 05:39:39;;;;;;;10.95;2.08;;;16.40;99.90;;;;;;5024362;28;20541;-81
2022/07/08 05:42:10;;;;;;;6.72;2.08;;;16.30;99.90;;;;;;5026177;28;20045;-82
2022/07/08 05:44:36;;;;;;;10.90;2.75;;;16.30;99.90;;;;;;5025110;28;20040;-81
2022/07/08 05:47:09;;;;;;;9.90;2.28;;;16.60;99.90;;;;;;5010146;28;20045;-81
2022/07/08 05:49:36;;;;;;;7.68;2.35;;;16.90;99.90;;;;;;5009230;28;20048;-81
2022/07/08 05:52:05;;;;;;;7.75;2.33;;;17.00;99.90;;;;;;5011243;28;20041;-82
2022/07/08 05:54:31;;;;;;;13.90;2.60;;;16.80;99.90;;;;;;5044529;28;20057;-81
2022/07/08 05:56:58;;;;;;;7.68;2.35;;;16.80;99.90;;;;;;5026509;28;20037;-81
2022/07/08 05:59:23;;;;;;;10.35;2.95;;;16.80;99.90;;;;;;5043879;28;20050;-81
2022/07/08 06:01:49;;;;;;;12.10;2.72;;;16.70;99.90;;;;;;5025557;28;20048;-81
2022/07/08 06:04:14;;;;;;;13.32;2.95;;;16.50;99.90;;;;;;5026377;28;20045;-81
2022/07/08 06:06:40;;;;;;;7.88;2.53;;;16.60;99.90;;;;;;5044832;28;20095;-81
2022/07/08 06:09:05;;;;;;;8.25;2.20;;;16.50;99.90;;;;;;5026384;28;20124;-81
2022/07/08 06:11:31;;;;;;;11.48;2.03;;;16.40;99.90;;;;;;5008836;28;20098;-81
2022/07/08 06:13:59;;;;;;;13.02;2.75;;;16.30;99.90;;;;;;5026339;28;20041;-81
2022/07/08 06:16:25;;;;;;;12.07;2.30;;;16.30;99.90;;;;;;5024184;28;20083;-81
2022/07/08 06:18:51;;;;;;;13.98;2.45;;;16.40;99.90;;;;;;5008439;28;20068;-82
2022/07/08 06:21:17;;;;;;;11.75;2.35;;;16.30;99.90;;;;;;5008913;28;20038;-81
2022/07/08 06:23:43;;;;;;;11.20;2.55;;;16.30;99.90;;;;;;5043688;28;20043;-81
2022/07/08 06:26:10;;;;;;;9.50;2.40;;;16.40;99.90;;;;;;5026975;28;20041;-81
2022/07/08 06:28:36;;;;;;;14.93;2.40;;;16.60;99.90;;;;;;5023593;28;20053;-81
2022/07/08 06:31:02;;;;;;;9.63;2.30;;;16.50;99.90;;;;;;5042349;28;20037;-82
2022/07/08 06:33:28;;;;;;;8.48;2.67;;;16.50;99.90;;;;;;5024555;28;20088;-82
2022/07/08 06:35:53;;;;;;;15.73;2.40;;;16.70;99.90;;;;;;5024050;28;20394;-80
2022/07/08 06:38:19;;;;;;;11.75;2.47;;;16.50;99.90;;;;;;5043962;28;20128;-81
2022/07/08 06:40:45;;;;;;;8.63;2.03;;;16.70;99.90;;;;;;5043924;28;20049;-81
2022/07/08 06:43:10;;;;;;;9.85;2.40;;;16.70;99.90;;;;;;5024667;28;20033;-81
2022/07/08 06:45:36;;;;;;;9.18;1.98;;;16.70;99.90;;;;;;5024421;28;20041;-81
2022/07/08 06:48:02;;;;;;;10.57;3.47;;;16.90;99.90;;;;;;5023944;28;20041;-81
2022/07/08 06:50:29;;;;;;;9.90;2.40;;;16.90;99.90;;;;;;5007686;28;20052;-82
2022/07/08 06:52:54;;;;;;;10.55;2.30;;;17.00;99.90;;;;;;5044672;28;20041;-82
2022/07/08 06:55:21;;;;;;;12.48;2.30;;;16.90;99.90;;;;;;5009927;28;20566;-82
2022/07/08 06:57:46;;;;;;;9.48;2.00;;;17.10;99.90;;;;;;5009499;28;20042;-81
2022/07/08 07:00:12;;;;;;;12.13;2.13;;;17.20;99.90;;;;;;5026077;28;20118;-81
2022/07/08 07:02:38;;;;;;;11.50;2.00;;;17.40;99.90;;;;;;5024537;28;20033;-82
2022/07/08 07:05:04;;;;;;;8.77;2.40;;;17.30;99.90;;;;;;5024965;28;20041;-80
2022/07/08 07:07:29;;;;;;;11.40;2.35;;;17.30;99.90;;;;;;5033637;28;20041;-78
2022/07/08 07:09:56;;;;;;;9.45;1.83;;;17.30;99.90;;;;;;5030031;28;20037;-79
2022/07/08 07:12:22;;;;;;;10.63;2.00;;;17.50;99.90;;;;;;4997688;28;20065;-80
2022/07/08 07:14:47;;;;;;;11.85;2.80;;;17.50;99.90;;;;;;5000465;28;20049;-80
2022/07/08 07:17:17;;;;;;;10.15;2.28;;;17.30;99.90;;;;;;5021015;28;20033;-80
2022/07/08 07:19:42;;;;;;;8.32;2.13;;;17.50;99.90;;;;;;5003658;28;20058;-80
2022/07/08 07:22:08;;;;;;;6.85;1.95;;;17.60;99.90;;;;;;5000730;28;20143;-80
2022/07/08 07:24:33;;;;;;;7.18;2.63;;;17.70;99.90;;;;;;4999775;28;20102;-80
2022/07/08 07:26:59;;;;;;;15.13;2.78;;;17.50;99.90;;;;;;5016340;28;20053;-81
2022/07/08 07:29:25;;;;;;;13.52;2.15;;;17.50;99.90;;;;;;5018179;28;20033;-82
2022/07/08 07:31:50;;;;;;;8.98;2.42;;;17.70;99.90;;;;;;5001922;28;20478;-81
2022/07/08 07:34:16;;;;;;;11.73;2.80;;;17.50;99.90;;;;;;5002077;28;20521;-82
2022/07/08 07:36:41;;;;;;;9.35;1.98;;;17.70;99.90;;;;;;5001109;28;20077;-81
2022/07/08 07:39:09;;;;;;;8.75;2.33;;;17.60;99.90;;;;;;5018222;28;20037;-81
2022/07/08 07:41:36;;;;;;;11.38;2.22;;;17.50;99.90;;;;;;4985077;28;20049;-81
2022/07/08 07:44:02;;;;;;;10.98;2.17;;;17.50;99.90;;;;;;5000720;28;20058;-80
2022/07/08 07:46:28;;;;;;;10.93;2.35;;;17.60;99.90;;;;;;4999986;28;20056;-80
2022/07/08 07:48:53;;;;;;;13.80;2.45;;;17.50;99.90;;;;;;5000646;28;20488;-81
2022/07/08 07:51:19;;;;;;;9.65;2.30;;;17.60;99.90;;;;;;4983146;28;20077;-81
2022/07/08 07:53:45;;;;;;;7.78;2.47;;;17.70;99.90;;;;;;4984231;28;20049;-81
2022/07/08 07:56:10;;;;;;;8.55;2.05;;;17.80;99.90;;;;;;5002011;28;20040;-81
2022/07/08 07:58:38;;;;;;;5.63;2.00;;;17.80;99.90;;;;;;4999857;28;20042;-80
2022/07/08 08:01:04;;;;;;;6.03;1.90;;;17.70;99.90;;;;;;5001413;28;20416;-81
2022/07/08 08:03:29;;;;;;;8.38;1.67;;;17.80;99.90;;;;;;5017474;28;20037;-81
2022/07/08 08:05:55;;;;;;;10.90;2.20;;;17.80;99.90;;;;;;5018034;28;20056;-81
2022/07/08 08:08:20;;;;;;;12.38;2.30;;;17.90;99.90;;;;;;5016684;28;20045;-81
2022/07/08 08:10:46;;;;;;;11.45;2.35;;;17.70;99.90;;;;;;5015861;28;20052;-80
2022/07/08 08:13:12;;;;;;;8.10;2.20;;;17.80;99.90;;;;;;5018543;28;20065;-81
2022/07/08 08:15:37;;;;;;;6.78;1.70;;;17.60;99.90;;;;;;5018537;28;20038;-81
2022/07/08 08:18:04;;;;;;;6.57;2.15;;;17.70;99.90;;;;;;5020110;28;20030;-80
2022/07/08 08:20:29;;;;;;;8.00;1.52;;;17.80;99.90;;;;;;5018994;28;20041;-82
2022/07/08 08:22:55;;;;;;;12.30;1.52;;;17.90;99.90;;;;;;5040500;28;20049;-80
2022/07/08 08:25:21;;;;;;;8.10;2.10;;;17.90;99.90;;;;;;5023379;28;20454;-82
2022/07/08 08:27:49;;;;;;;8.35;2.72;;;18.00;99.90;;;;;;5025256;28;20068;-83
2022/07/08 08:30:16;;;;;;;5.30;1.98;;;18.10;99.90;;;;;;5020354;28;20053;-82
2022/07/08 08:32:41;;;;;;;6.55;2.15;;;18.20;99.90;;;;;;5014927;28;20041;-82
2022/07/08 08:35:09;;;;;;;8.10;1.95;;;18.30;99.90;;;;;;5029662;28;20038;-81
2022/07/08 08:37:35;;;;;;;11.15;2.10;;;18.30;99.90;;;;;;4993118;28;20449;-82
2022/07/08 08:40:12;;;;;;;5.45;2.40;;;18.30;99.90;;;;;;5028896;28;20048;-83
2022/07/08 08:42:40;;;;;;;9.95;2.47;;;18.30;99.90;;;;;;5003769;28;20104;-83
2022/07/08 08:45:06;;;;;;;9.48;2.42;;;18.20;99.90;;;;;;5016511;28;20034;-80
2022/07/08 08:47:34;;;;;;;5.57;1.63;;;18.30;99.90;;;;;;5016043;28;20049;-84
2022/07/08 08:52:49;;;;;;;6.60;2.25;;;18.20;99.90;;;;;;5019967;28;20049;-83
2022/07/08 08:55:24;;;;;;;11.85;2.38;;;18.30;99.90;;;;;;5000179;28;20109;-82
2022/07/08 08:57:50;;;;;;;8.73;2.50;;;18.30;99.90;;;;;;5024915;28;20068;-82
2022/07/08 09:00:16;;;;;;;6.65;1.90;;;18.30;99.90;;;;;;5011896;28;20038;-82
2022/07/08 09:02:41;;;;;;;11.10;2.20;;;18.30;99.90;;;;;;5012634;28;20041;-83
2022/07/08 09:05:08;;;;;;;8.82;2.28;;;18.30;99.90;;;;;;5019471;28;20056;-83
2022/07/08 09:07:37;;;;;;;6.82;1.70;;;18.20;99.90;;;;;;4990137;28;20128;-83
2022/07/08 09:10:22;;;;;;;6.38;2.10;;;18.20;99.90;;;;;;5005196;28;20061;-83
2022/07/08 09:13:02;;;;;;;5.65;2.25;;;18.20;99.90;;;;;;5024302;28;20041;-83
2022/07/08 09:15:36;;;;;;;6.18;2.10;;;18.20;99.90;;;;;;4991386;28;20050;-82
2022/07/08 09:18:05;;;;;;;8.70;1.90;;;18.10;99.90;;;;;;5031496;28;20052;-83
2022/07/08 09:20:58;;;;;;;10.38;2.50;;;18.20;99.90;;;;;;5031994;28;20113;-82
2022/07/08 09:23:24;;;;;;;12.05;2.55;;;18.20;99.90;;;;;;4990029;28;20056;-84
2022/07/08 09:26:02;;;;;;;12.00;2.42;;;18.30;99.90;;;;;;4989473;28;20041;-82
2022/07/08 09:28:31;;;;;;;8.18;2.05;;;18.40;99.90;;;;;;4990040;28;20427;-83
2022/07/08 09:30:59;;;;;;;7.10;2.00;;;18.40;99.90;;;;;;5023854;28;20101;-82
2022/07/08 09:33:25;;;;;;;5.70;2.08;;;18.50;99.90;;;;;;5005955;28;20050;-83
2022/07/08 09:35:51;;;;;;;8.30;2.05;;;18.50;99.90;;;;;;5004011;28;20069;-83
2022/07/08 09:38:21;;;;;;;10.02;1.83;;;18.70;99.90;;;;;;5003565;28;20515;-80
2022/07/08 09:41:20;;;;;;;5.75;1.95;;;18.80;99.90;;;;;;5003570;28;20141;-83
2022/07/08 09:43:46;;;;;;;6.68;2.03;;;18.80;99.90;;;;;;5005240;28;20041;-84
2022/07/08 09:46:12;;;;;;;6.43;1.67;;;18.80;99.90;;;;;;4991190;28;20033;-84
2022/07/08 09:48:38;;;;;;;5.93;1.95;;;18.90;99.90;;;;;;5002727;28;20042;-84
2022/07/08 09:51:07;;;;;;;8.80;2.28;;;18.90;99.90;;;;;;5019212;28;20487;-85
2022/07/08 09:53:33;;;;;;;6.93;2.10;;;19.00;99.90;;;;;;5019823;28;20038;-82
2022/07/08 09:56:00;;;;;;;7.30;2.10;;;19.00;99.90;;;;;;5003223;28;20046;-81
2022/07/08 09:58:28;;;;;;;9.93;1.92;;;19.00;99.90;;;;;;5019546;28;20073;-83
2022/07/08 10:00:55;;;;;;;7.47;2.35;;;19.00;99.90;;;;;;5000667;28;20046;-82
2022/07/08 10:03:22;;;;;;;9.02;2.35;;;19.20;99.90;;;;;;5001462;28;20049;-83
2022/07/08 10:05:49;;;;;;;4.93;1.70;;;19.30;99.90;;;;;;5002325;28;20044;-82
2022/07/08 10:08:16;;;;;;;7.03;1.75;;;19.40;99.90;;;;;;5002542;28;20046;-82
2022/07/08 10:10:44;;;;;;;9.55;2.00;;;19.60;99.90;;;;;;5000145;28;20034;-82
2022/07/08 10:13:10;;;;;;;6.43;2.28;;;19.70;99.90;;;;;;5001222;28;20046;-80
2022/07/08 10:15:37;;;;;;;5.05;1.58;;;19.80;99.90;;;;;;5001656;28;20047;-82
2022/07/08 10:18:12;;;;;;;5.30;1.90;;;19.80;99.90;;;;;;5002713;28;20095;-82
2022/07/08 10:20:41;;;;;;;6.15;2.15;;;20.00;99.90;;;;;;4985381;28;20139;-84
2022/07/08 10:23:11;;;;;;;4.72;1.95;;;20.00;99.90;;;;;;5001251;28;20038;-81
2022/07/08 10:25:37;;;;;;;6.70;1.63;;;19.90;99.90;;;;;;4984188;28;20030;-82
2022/07/08 10:28:04;;;;;;;6.75;1.75;;;19.90;99.90;;;;;;5019611;28;20454;-83
2022/07/08 10:30:45;;;;;;;6.38;1.92;;;19.90;99.90;;;;;;5003820;28;20100;-82
2022/07/08 10:33:11;;;;;;;4.03;1.83;;;19.80;99.90;;;;;;5002890;28;20132;-85
2022/07/08 10:36:01;;;;;;;7.93;1.90;;;19.80;99.90;;;;;;5022405;28;20072;-83
2022/07/08 10:38:32;;;;;;;;;;;20.00;99.90;;;;;;5022022;28;20099;-83
2022/07/08 10:41:01;;;;;;;5.78;1.92;;;20.00;99.90;;;;;;5031847;28;20314;-81
2022/07/08 10:43:27;;;;;;;5.20;2.15;;;20.20;99.90;;;;;;5039928;28;20044;-81
2022/07/08 10:46:10;;;;;;;7.55;1.63;;;20.10;99.90;;;;;;5023215;28;20049;-82
2022/07/08 10:48:39;;;;;;;7.55;2.10;;;20.30;99.90;;;;;;5023297;28;20045;-81
2022/07/08 10:51:05;;;;;;;6.50;2.20;;;20.30;99.90;;;;;;5017718;28;20045;-79
2022/07/08 10:53:51;;;;;;;5.18;1.90;;;20.50;99.90;;;;;;5041384;28;20040;-83
2022/07/08 10:56:48;;;;;;;7.95;2.60;;;20.70;99.90;;;;;;5007161;28;20045;-83
2022/07/08 10:59:16;;;;;;;5.18;1.95;;;21.10;99.90;;;;;;5026410;28;20045;-83
2022/07/08 11:01:42;;;;;;;5.88;2.10;;;21.20;99.90;;;;;;5039903;28;20076;-82
2022/07/08 11:04:41;;;;;;;9.57;2.20;;;21.30;99.90;;;;;;5022808;28;20041;-79
2022/07/08 11:07:28;;;;;;;6.45;2.15;;;21.40;99.90;;;;;;5020935;28;20149;-81
2022/07/08 11:10:15;;;;;;;7.30;2.22;;;21.40;99.90;;;;;;5024190;28;20117;-82
2022/07/08 11:12:44;;;;;;;8.35;2.20;;;21.30;99.90;;;;;;5004198;28;20049;-80
2022/07/08 11:15:12;;;;;;;5.70;2.10;;;21.30;99.90;;;;;;5041727;28;20107;-81
2022/07/08 11:17:40;;;;;;;5.20;2.15;;;21.10;99.90;;;;;;5014977;28;20038;-78
2022/07/08 11:20:12;;;;;;;6.18;1.83;;;20.80;99.90;;;;;;5035830;23;20068;-70
2022/07/08 11:22:39;;;;;;;8.70;2.42;;;20.80;99.90;;;;;;5014489;28;20038;-70
2022/07/08 11:25:07;;;;;;;6.60;2.28;;;20.70;99.90;;;;;;5014375;28;20037;-70
2022/07/08 11:27:34;;;;;;;8.00;2.47;;;20.80;99.90;;;;;;5031479;28;20112;-71
2022/07/08 11:30:18;;;;;;;7.13;2.65;;;21.00;99.90;;;;;;5013868;28;20041;-71
2022/07/08 11:32:48;;;;;;;6.30;2.42;;;21.30;99.90;;;;;;5031756;28;20116;-71
2022/07/08 11:35:13;;;;;;;8.35;2.75;;;21.50;99.90;;;;;;5014172;28;20131;-71
2022/07/08 11:37:43;;;;;;;5.00;2.30;;;21.40;99.90;;;;;;5014018;28;20531;-73
2022/07/08 11:40:10;;;;;;;9.07;2.25;;;21.70;99.90;;;;;;5031361;28;20565;-71
2022/07/08 11:42:37;;;;;;;8.95;2.08;;;21.70;99.90;;;;;;5031943;28;20380;-71
2022/07/08 11:45:11;;;;;;;5.07;2.30;;;21.70;99.90;;;;;;5031680;28;20130;-71
2022/07/08 11:47:37;;;;;;;7.70;2.17;;;21.80;99.90;;;;;;5013412;28;20037;-69
2022/07/08 11:50:03;;;;;;;10.32;2.65;;;21.70;99.90;;;;;;5030958;28;20044;-69
2022/07/08 11:52:29;;;;;;;6.25;2.30;;;21.80;99.90;;;;;;5031759;28;20084;-69
2022/07/08 11:54:57;;;;;;;6.45;2.00;;;21.90;99.90;;;;;;5014802;28;20061;-69
2022/07/08 11:57:22;;;;;;;8.52;2.38;;;22.00;99.90;;;;;;5030962;28;20601;-69
2022/07/08 11:59:49;;;;;;;6.72;2.40;;;21.90;99.90;;;;;;5027893;28;20058;-69
2022/07/08 12:02:20;;;;;;;8.13;2.45;;;21.90;99.90;;;;;;5020288;28;20533;-70
2022/07/08 12:04:47;;;;;;;13.10;2.25;;;21.80;99.90;;;;;;5021792;28;20053;-69
2022/07/08 12:07:27;;;;;;;7.15;2.28;;;21.80;99.90;;;;;;5022331;28;20045;-69
2022/07/08 12:09:59;;;;;;;4.10;1.85;;;21.80;99.90;;;;;;5021833;28;20042;-69
2022/07/08 12:12:26;;;;;;;;;;;21.80;99.90;;;;;;5021748;28;20037;-69
2022/07/08 12:14:52;;;;;;;12.25;2.72;;;21.50;99.90;;;;;;5020502;28;19951;-69
2022/07/08 12:17:28;;;;;;;5.38;1.60;;;21.60;99.90;;;;;;5004987;28;20519;-69
2022/07/08 12:19:56;;;;;;;5.18;2.03;;;21.50;99.90;;;;;;5028120;28;20042;-69
2022/07/08 12:22:48;;;;;;;5.10;1.80;;;21.70;99.90;;;;;;5013342;28;20041;-69
2022/07/08 12:25:18;;;;;;;6.53;2.58;;;21.60;99.90;;;;;;5029517;28;20037;-69
2022/07/08 12:27:54;;;;;;;8.05;2.42;;;21.70;99.90;;;;;;5031844;28;20048;-68
2022/07/08 12:30:28;;;;;;;9.50;2.67;;;21.60;99.90;;;;;;5013491;28;20060;-70
2022/07/08 12:32:59;;;;;;;10.65;2.78;;;21.50;99.90;;;;;;5031344;28;20073;-69
2022/07/08 12:35:29;;;;;;;8.50;2.72;;;21.60;99.90;;;;;;5031197;28;20491;-70
2022/07/08 12:38:10;;;;;;;7.90;2.50;;;21.70;99.90;;;;;;5030964;28;20037;-70
2022/07/08 12:40:37;;;;;;;8.68;2.55;;;21.80;99.90;;;;;;5034650;28;20398;-69
2022/07/08 12:43:04;;;;;;;6.85;2.95;;;21.70;99.90;;;;;;5017597;28;20052;-69
2022/07/08 12:45:30;;;;;;;4.95;2.42;;;21.90;99.90;;;;;;5035068;28;20037;-69
2022/07/08 12:47:56;;;;;;;7.65;2.20;;;22.00;99.90;;;;;;5017181;28;20053;-69
2022/07/08 12:50:22;;;;;;;7.63;2.88;;;22.00;99.90;;;;;;5034411;28;20038;-69
2022/07/08 12:52:48;;;;;;;8.25;2.78;;;22.00;99.90;;;;;;5017194;28;20564;-69